Time;durP1;ratioP1;P1;durP2;ratioP2;P2;SDS_P1;SDS_P2;PMS_P1;PMS_P2;Temp;Humidity;BMP_temperature;BMP_pressure;BME280_temperature;BME280_humidity;BME280_pressure;Samples;Min_cycle;Max_cycle;Signal;HPM_P1;HPM_P2
2022/05/16 00:01:25;;;;;;;2.97;2.67;;;;;;;17.55;94.88;100085.59;5021816;28;20559;-75
2022/05/16 00:03:50;;;;;;;2.77;2.57;;;;;;;17.52;95.50;100086.59;5024480;28;20270;-74
2022/05/16 00:06:16;;;;;;;3.93;2.83;;;;;;;17.50;96.06;100087.53;5021637;28;20311;-74
2022/05/16 00:08:41;;;;;;;3.03;2.70;;;;;;;17.47;96.58;100087.69;5025858;28;20192;-75
2022/05/16 00:11:06;;;;;;;2.70;2.50;;;;;;;17.46;96.86;100086.84;5019906;28;20231;-74
2022/05/16 00:13:32;;;;;;;3.07;2.60;;;;;;;17.46;97.34;100080.75;5020223;28;20246;-74
2022/05/16 00:15:57;;;;;;;2.87;2.67;;;;;;;17.43;98.41;100096.56;5021849;28;20195;-75
2022/05/16 00:18:23;;;;;;;3.87;2.60;;;;;;;17.35;99.29;100094.28;5020769;28;20191;-75
2022/05/16 00:20:48;;;;;;;2.93;2.67;;;;;;;17.26;99.36;100094.63;5025078;28;20198;-74
2022/05/16 00:23:14;;;;;;;2.73;2.53;;;;;;;17.17;99.38;100107.16;5020085;28;20431;-75
2022/05/16 00:25:40;;;;;;;2.60;2.40;;;;;;;17.11;99.55;100107.38;5023525;28;20604;-75
2022/05/16 00:28:05;;;;;;;2.90;2.60;;;;;;;17.09;99.92;100113.59;5027300;28;20187;-75
2022/05/16 00:30:31;;;;;;;2.80;2.60;;;;;;;17.06;99.88;100114.59;5019144;28;20238;-74
2022/05/16 00:32:57;;;;;;;2.87;2.67;;;;;;;17.03;100.00;100125.16;5024390;28;20787;-74
2022/05/16 00:35:23;;;;;;;2.80;2.60;;;;;;;17.01;100.00;100122.59;5022630;28;20847;-74
2022/05/16 00:37:48;;;;;;;2.67;2.47;;;;;;;17.02;100.00;100123.44;5022026;28;20189;-74
2022/05/16 00:40:15;;;;;;;2.43;2.23;;;;;;;17.03;100.00;100122.53;5025293;28;20749;-74
2022/05/16 00:42:41;;;;;;;2.87;2.50;;;;;;;17.04;98.60;100122.47;5022350;28;20194;-76
2022/05/16 00:45:08;;;;;;;2.67;2.40;;;;;;;17.09;96.75;100113.59;5023407;28;20184;-75
2022/05/16 00:47:33;;;;;;;2.50;2.17;;;;;;;17.14;96.00;100120.34;5025180;28;20187;-76
2022/05/16 00:50:01;;;;;;;2.70;2.50;;;;;;;17.24;95.52;100122.63;5022681;28;20609;-75
2022/05/16 00:52:32;;;;;;;2.83;2.50;;;;;;;17.32;94.96;100129.22;5023189;28;20189;-75
2022/05/16 00:55:00;;;;;;;2.70;2.50;;;;;;;17.40;94.58;100122.84;5022697;28;20183;-75
2022/05/16 00:57:33;;;;;;;3.30;2.60;;;;;;;17.45;94.32;100129.59;5023545;28;20186;-74
2022/05/16 01:00:02;;;;;;;2.60;2.40;;;;;;;17.50;94.32;100126.78;5022208;28;20264;-74
2022/05/16 01:05:14;;;;;;;3.23;2.73;;;;;;;17.51;94.01;100126.75;5019962;28;20211;-74
2022/05/16 01:07:41;;;;;;;2.30;2.10;;;;;;;17.51;94.05;100126.75;5020123;28;20187;-74
2022/05/16 01:10:09;;;;;;;2.73;2.53;;;;;;;17.52;93.99;100120.59;5019126;28;20200;-74
2022/05/16 01:12:37;;;;;;;3.73;2.70;;;;;;;17.52;94.28;100117.13;5022976;28;20188;-74
2022/05/16 01:15:10;;;;;;;2.60;2.40;;;;;;;17.54;94.13;100111.84;5020867;28;20195;-74
2022/05/16 01:17:35;;;;;;;2.63;2.43;;;;;;;17.52;94.49;100112.75;5018532;28;20329;-75
2022/05/16 01:20:01;;;;;;;3.00;2.70;;;;;;;17.55;94.40;100111.78;5016449;28;20184;-75
2022/05/16 01:22:35;;;;;;;3.73;2.70;;;;;;;17.56;94.35;100103.00;5014277;28;20570;-75
2022/05/16 01:25:10;;;;;;;2.60;2.40;;;;;;;17.54;94.39;100111.84;5020948;28;20289;-74
2022/05/16 01:27:55;;;;;;;2.67;2.47;;;;;;;17.50;94.51;100101.50;5025615;28;20226;-74
2022/05/16 01:30:41;;;;;;;2.43;2.23;;;;;;;17.48;94.75;100094.59;5017108;28;20731;-74
2022/05/16 01:33:07;;;;;;;3.00;2.70;;;;;;;17.45;94.77;100084.28;5021475;28;20193;-75
2022/05/16 01:35:33;;;;;;;2.80;2.60;;;;;;;17.44;94.73;100087.81;5025003;28;20732;-75
2022/05/16 01:40:44;;;;;;;3.20;2.53;;;;;;;17.40;95.09;100083.63;5024905;28;20250;-74
2022/05/16 01:43:10;;;;;;;2.97;2.67;;;;;;;17.38;95.53;100094.16;5020456;28;20209;-75
2022/05/16 01:45:37;;;;;;;2.90;2.70;;;;;;;17.37;95.56;100095.06;5021174;28;20299;-75
2022/05/16 01:48:03;;;;;;;3.33;2.70;;;;;;;17.35;96.01;100089.88;5025483;28;20191;-76
2022/05/16 01:50:28;;;;;;;2.93;2.63;;;;;;;17.33;95.99;100080.41;5026794;28;20210;-75
2022/05/16 01:52:53;;;;;;;2.70;2.47;;;;;;;17.30;96.22;100097.06;5029062;28;20278;-74
2022/05/16 01:55:19;;;;;;;3.83;2.90;;;;;;;17.28;96.53;100082.34;5028278;28;20238;-74
2022/05/16 01:57:44;;;;;;;3.27;2.60;;;;;;;17.24;96.82;100084.22;5021964;28;20279;-74
2022/05/16 02:00:12;;;;;;;3.03;2.83;;;;;;;17.21;96.95;100087.84;5021553;28;20180;-75
2022/05/16 02:02:42;;;;;;;2.80;2.53;;;;;;;17.18;97.38;100074.88;5023228;28;20200;-74
2022/05/16 02:05:10;;;;;;;3.53;2.90;;;;;;;17.17;97.51;100080.16;5020381;28;20649;-74
2022/05/16 02:07:36;;;;;;;3.27;3.03;;;;;;;17.14;97.51;100081.13;5025095;28;20199;-74
2022/05/16 02:10:01;;;;;;;2.90;2.70;;;;;;;17.13;97.89;100078.59;5022043;28;20204;-74
2022/05/16 02:12:26;;;;;;;2.93;2.63;;;;;;;17.11;98.00;100081.25;5024058;28;20265;-74
2022/05/16 02:14:52;;;;;;;3.10;2.50;;;;;;;17.10;97.84;100083.94;5023169;28;20191;-75
2022/05/16 02:17:17;;;;;;;3.10;2.90;;;;;;;17.09;97.89;100079.63;5019096;28;20302;-74
2022/05/16 02:19:43;;;;;;;3.20;2.90;;;;;;;17.07;97.82;100077.06;5021249;28;20220;-75
2022/05/16 02:25:03;;;;;;;3.10;2.90;;;;;;;17.05;97.30;100082.34;5004245;28;20194;-75
2022/05/16 02:27:28;;;;;;;2.77;2.57;;;;;;;17.04;97.42;100079.81;5022379;28;20195;-75
2022/05/16 02:29:54;;;;;;;3.10;2.80;;;;;;;17.02;97.00;100072.00;5023095;28;20643;-74
2022/05/16 02:32:19;;;;;;;2.90;2.70;;;;;;;17.02;96.77;100074.63;5024381;28;20193;-74
2022/05/16 02:34:45;;;;;;;3.03;2.80;;;;;;;17.00;97.04;100076.47;5027101;28;20189;-74
2022/05/16 02:37:12;;;;;;;3.07;2.77;;;;;;;16.99;96.51;100079.97;5029056;28;20274;-74
2022/05/16 02:39:38;;;;;;;2.97;2.60;;;;;;;16.99;96.55;100076.50;5026223;28;20194;-75
2022/05/16 02:42:04;;;;;;;2.90;2.60;;;;;;;16.97;96.37;100075.72;5018876;28;20737;-75
2022/05/16 02:44:30;;;;;;;2.80;2.60;;;;;;;16.97;96.45;100080.94;5024364;28;20569;-75
2022/05/16 02:46:55;;;;;;;3.00;2.80;;;;;;;16.95;96.79;100086.22;5024135;28;20218;-75
2022/05/16 02:49:24;;;;;;;2.73;2.53;;;;;;;16.95;96.79;100085.38;5022367;28;20194;-74
2022/05/16 02:51:49;;;;;;;2.70;2.50;;;;;;;16.95;97.06;100096.69;5027244;28;20246;-75
2022/05/16 02:54:14;;;;;;;3.03;2.80;;;;;;;16.95;96.98;100099.31;5022912;28;20191;-74
2022/05/16 02:56:40;;;;;;;3.40;3.10;;;;;;;16.95;97.25;100096.69;5021587;28;20211;-74
2022/05/16 02:59:05;;;;;;;3.03;2.83;;;;;;;16.94;97.34;100097.56;5023846;28;20188;-75
2022/05/16 03:01:34;;;;;;;3.70;3.40;;;;;;;16.94;97.84;100102.78;5025803;28;20196;-75
2022/05/16 03:04:00;;;;;;;3.80;3.20;;;;;;;16.92;98.72;100102.00;5018546;28;20188;-75
2022/05/16 03:06:25;;;;;;;3.77;3.50;;;;;;;16.93;99.37;100095.88;5021539;28;20219;-75
2022/05/16 03:08:50;;;;;;;4.27;3.93;;;;;;;16.90;99.62;100101.19;5025716;28;20611;-74
2022/05/16 03:11:16;;;;;;;4.67;3.90;;;;;;;16.88;99.79;100101.28;5023876;28;20623;-75
2022/05/16 03:13:41;;;;;;;3.80;3.40;;;;;;;16.89;100.00;100096.88;5019041;28;20233;-74
2022/05/16 03:16:06;;;;;;;4.33;3.93;;;;;;;16.87;100.00;100098.69;5023192;28;20207;-75
2022/05/16 03:18:32;;;;;;;4.30;4.00;;;;;;;16.83;100.00;100102.34;5024075;28;20203;-75
2022/05/16 03:20:58;;;;;;;4.10;3.80;;;;;;;16.76;100.00;100092.13;5026136;28;20191;-75
2022/05/16 03:23:24;;;;;;;3.73;3.43;;;;;;;16.72;100.00;100103.59;5024980;28;20205;-75
2022/05/16 03:25:50;;;;;;;4.10;3.80;;;;;;;16.69;100.00;100106.34;5022404;28;20924;-75
2022/05/16 03:28:15;;;;;;;4.10;3.80;;;;;;;16.66;100.00;100109.06;5024378;28;20183;-75
2022/05/16 03:30:42;;;;;;;4.40;4.00;;;;;;;16.65;100.00;100119.56;5022499;28;20702;-75
2022/05/16 03:33:08;;;;;;;4.13;3.70;;;;;;;16.60;100.00;100115.38;5023700;28;20267;-75
2022/05/16 03:35:33;;;;;;;4.10;3.80;;;;;;;16.57;100.00;100115.47;5026505;28;20203;-75
2022/05/16 03:37:59;;;;;;;4.50;4.10;;;;;;;16.55;100.00;100121.69;5025628;28;20188;-75
2022/05/16 03:40:43;;;;;;;3.70;3.50;;;;;;;16.52;100.00;100120.00;5024479;28;20196;-75
2022/05/16 03:43:13;;;;;;;4.20;3.80;;;;;;;16.49;100.00;100138.41;5022908;28;20193;-75
2022/05/16 03:45:39;;;;;;;4.27;3.97;;;;;;;16.49;100.00;100138.41;5022519;28;20230;-75
2022/05/16 03:48:06;;;;;;;4.83;3.77;;;;;;;16.48;100.00;100130.63;5024259;28;20793;-75
2022/05/16 03:50:32;;;;;;;4.03;3.73;;;;;;;16.46;100.00;100126.31;5030067;28;20323;-75
2022/05/16 03:52:59;;;;;;;4.17;3.87;;;;;;;16.48;100.00;100133.25;5023957;28;21010;-74
2022/05/16 03:55:26;;;;;;;4.10;3.70;;;;;;;16.49;100.00;100133.19;5025647;28;20217;-75
2022/05/16 03:57:52;;;;;;;3.80;3.43;;;;;;;16.49;100.00;100133.19;5021737;28;20254;-75
2022/05/16 04:00:18;;;;;;;4.23;3.60;;;;;;;16.52;100.00;100132.25;5020500;28;20196;-75
2022/05/16 04:02:44;;;;;;;3.83;3.53;;;;;;;16.56;100.00;100126.84;5023773;28;20188;-75
2022/05/16 04:05:14;;;;;;;4.20;3.80;;;;;;;16.63;100.00;100122.25;5023250;28;20250;-75
2022/05/16 04:07:40;;;;;;;4.17;3.87;;;;;;;16.72;100.00;100121.06;5031201;28;20185;-75
2022/05/16 04:10:05;;;;;;;3.90;3.53;;;;;;;16.80;100.00;100128.59;5027618;28;20310;-75
2022/05/16 04:12:31;;;;;;;5.60;4.37;;;;;;;16.87;100.00;100135.28;5020157;28;20651;-74
2022/05/16 04:14:56;;;;;;;4.40;4.00;;;;;;;16.90;100.00;100135.19;5022077;28;20199;-75
2022/05/16 04:17:21;;;;;;;6.73;4.33;;;;;;;16.94;100.00;100135.94;5022341;28;20219;-74
2022/05/16 04:19:47;;;;;;;5.10;4.07;;;;;;;16.96;100.00;100123.66;5023676;28;20183;-74
2022/05/16 04:22:13;;;;;;;5.47;4.40;;;;;;;16.96;100.00;100126.28;5022369;28;20248;-75
2022/05/16 04:24:39;;;;;;;5.00;4.50;;;;;;;16.96;100.00;100126.28;5021215;28;20292;-75
2022/05/16 04:27:05;;;;;;;5.67;4.10;;;;;;;16.97;100.00;100134.09;5021742;28;20298;-76
2022/05/16 04:29:30;;;;;;;5.00;4.60;;;;;;;16.94;100.00;100121.09;5022669;28;20195;-76
2022/05/16 04:31:56;;;;;;;6.23;4.97;;;;;;;16.92;100.00;100120.28;5019739;28;20223;-74
2022/05/16 04:34:21;;;;;;;9.17;4.27;;;;;;;16.93;100.00;100122.00;5026447;28;20188;-74
2022/05/16 04:36:46;;;;;;;8.43;4.90;;;;;;;16.92;100.00;100115.94;5025334;28;20212;-74
2022/05/16 04:39:12;;;;;;;10.30;5.20;;;;;;;16.93;100.00;100119.38;5022583;28;20187;-74
2022/05/16 04:44:22;;;;;;;6.57;4.47;;;;;;;16.94;100.00;100128.09;5027394;28;20257;-75
2022/05/16 04:46:47;;;;;;;5.77;4.70;;;;;;;16.97;100.00;100130.59;5021797;28;20210;-75
2022/05/16 04:49:12;;;;;;;6.10;4.53;;;;;;;16.97;100.00;100128.84;5023507;28;20190;-75
2022/05/16 04:51:38;;;;;;;5.60;4.57;;;;;;;16.99;100.00;100141.84;5025688;28;20633;-75
2022/05/16 04:54:03;;;;;;;4.30;4.00;;;;;;;17.00;100.00;100151.41;5023544;28;20549;-75
2022/05/16 04:56:29;;;;;;;5.70;3.90;;;;;;;17.00;100.00;100156.63;5024216;28;20687;-75
2022/05/16 04:58:54;;;;;;;4.50;4.10;;;;;;;17.01;100.00;100164.44;5023109;28;20238;-75
2022/05/16 05:01:20;;;;;;;4.60;4.20;;;;;;;17.02;100.00;100162.66;5022253;28;20188;-75
2022/05/16 05:03:45;;;;;;;4.43;3.80;;;;;;;17.02;100.00;100149.59;5021747;28;20188;-75
2022/05/16 05:06:10;;;;;;;4.87;4.20;;;;;;;17.07;100.00;100158.13;5016461;28;20213;-75
2022/05/16 05:08:36;;;;;;;4.50;4.13;;;;;;;17.13;100.00;100152.63;5025744;28;20261;-75
2022/05/16 05:16:30;;;;;;;4.40;4.00;;;;;;;17.42;100.00;100168.94;5025032;28;20242;-74
2022/05/16 05:18:56;;;;;;;4.30;3.90;;;;;;;17.55;100.00;100166.72;5023555;28;20242;-74
2022/05/16 05:21:22;;;;;;;4.93;4.43;;;;;;;17.73;100.00;100178.19;5024045;28;20742;-74
2022/05/16 05:23:47;;;;;;;5.60;3.93;;;;;;;17.89;100.00;100177.56;5024221;28;20245;-74
2022/05/16 05:26:13;;;;;;;7.27;4.27;;;;;;;18.05;100.00;100183.06;5022455;28;20215;-73
2022/05/16 05:28:40;;;;;;;4.63;4.20;;;;;;;18.20;100.00;100176.31;5023400;28;20180;-75
2022/05/16 05:31:11;;;;;;;4.43;4.03;;;;;;;18.31;100.00;100178.47;5026768;28;20200;-75
2022/05/16 05:33:37;;;;;;;4.60;4.20;;;;;;;18.43;100.00;100170.97;5041857;28;20185;-75
2022/05/16 05:36:02;;;;;;;5.67;4.33;;;;;;;18.63;100.00;100184.09;5023209;28;20704;-75
2022/05/16 05:38:27;;;;;;;4.37;3.97;;;;;;;18.78;100.00;100170.31;5021760;28;20565;-75
2022/05/16 05:40:53;;;;;;;4.20;3.80;;;;;;;18.94;100.00;100175.72;5020576;28;20197;-75
2022/05/16 05:43:18;;;;;;;4.53;3.80;;;;;;;19.03;100.00;100175.31;5020888;28;20191;-75
2022/05/16 05:45:44;;;;;;;4.20;3.80;;;;;;;19.12;100.00;100179.28;5020071;28;20754;-74
2022/05/16 05:48:09;;;;;;;4.33;3.93;;;;;;;19.19;100.00;100182.47;5024054;28;20199;-74
2022/05/16 05:50:35;;;;;;;4.00;3.70;;;;;;;19.27;100.00;100184.75;5021418;28;20212;-75
2022/05/16 05:53:00;;;;;;;27.17;5.53;;;;;;;19.30;100.00;100184.56;5025136;28;20281;-74
2022/05/16 05:55:26;;;;;;;7.03;4.57;;;;;;;19.28;100.00;100186.44;5015558;28;20593;-75
2022/05/16 05:57:53;;;;;;;6.60;4.97;;;;;;;19.25;100.00;100189.19;5019975;28;20236;-76
2022/05/16 06:00:19;;;;;;;4.83;4.17;;;;;;;19.24;100.00;100200.63;5022241;28;20191;-75
2022/05/16 06:02:45;;;;;;;4.40;4.10;;;;;;;19.27;100.00;100206.56;5023565;28;20193;-75
2022/05/16 06:05:13;;;;;;;4.80;4.40;;;;;;;19.30;100.00;100211.69;5016173;28;20579;-76
2022/05/16 06:07:39;;;;;;;4.53;4.17;;;;;;;19.33;100.00;100224.66;5020884;28;20194;-75
2022/05/16 06:10:06;;;;;;;4.30;3.90;;;;;;;19.37;100.00;100224.50;5025379;28;20187;-75
2022/05/16 06:12:31;;;;;;;4.53;4.13;;;;;;;19.37;100.00;100227.13;5056473;28;20191;-75
2022/05/16 06:14:57;;;;;;;5.37;3.60;;;;;;;19.36;100.00;100233.31;5020737;28;20190;-77
2022/05/16 06:17:22;;;;;;;5.00;3.97;;;;;;;19.36;100.00;100236.78;5026887;28;20187;-75
2022/05/16 06:19:48;;;;;;;6.07;4.00;;;;;;;19.41;100.00;100250.53;5026451;28;20194;-76
2022/05/16 06:22:13;;;;;;;4.83;4.13;;;;;;;19.50;100.00;100246.63;5028925;28;20221;-75
2022/05/16 06:27:22;;;;;;;4.73;4.10;;;;;;;19.80;100.00;100262.69;5028235;28;22068;-75
2022/05/16 06:29:48;;;;;;;4.47;4.07;;;;;;;19.99;100.00;100261.84;5028574;28;20189;-75
2022/05/16 06:32:13;;;;;;;5.20;4.47;;;;;;;20.24;99.96;100261.50;5025758;28;20192;-76
2022/05/16 06:34:39;;;;;;;4.23;3.80;;;;;;;20.51;99.14;100260.16;5029568;28;20186;-75
2022/05/16 06:37:04;;;;;;;4.60;4.20;;;;;;;20.77;98.39;100263.28;5025332;28;20222;-75
2022/05/16 06:39:30;;;;;;;4.10;3.80;;;;;;;21.00;97.79;100264.69;5028705;28;20716;-75
2022/05/16 06:41:55;;;;;;;5.07;4.60;;;;;;;21.22;96.79;100264.38;5025610;28;20198;-75
2022/05/16 06:44:20;;;;;;;4.83;4.33;;;;;;;21.31;95.56;100263.03;5026293;28;20848;-76
2022/05/16 06:46:46;;;;;;;4.57;4.00;;;;;;;21.38;95.16;100281.97;5029271;28;20247;-76
2022/05/16 06:49:12;;;;;;;4.00;3.70;;;;;;;21.39;94.88;100279.25;5024211;28;20188;-74
2022/05/16 06:51:37;;;;;;;4.63;4.13;;;;;;;21.39;94.57;100274.00;5027992;28;20231;-75
2022/05/16 06:54:04;;;;;;;3.97;3.67;;;;;;;21.35;94.47;100282.16;5026670;28;20269;-74
2022/05/16 06:56:30;;;;;;;4.33;4.03;;;;;;;21.34;94.85;100280.44;5032872;28;20208;-75
2022/05/16 06:58:56;;;;;;;3.97;3.67;;;;;;;21.28;95.07;100276.38;5028718;28;20797;-75
2022/05/16 07:01:22;;;;;;;4.87;3.50;;;;;;;21.23;95.03;100286.28;5025952;28;20187;-76
2022/05/16 07:03:47;;;;;;;4.70;4.23;;;;;;;21.20;95.36;100295.19;5021353;28;20278;-75
2022/05/16 07:06:14;;;;;;;4.63;4.17;;;;;;;21.22;95.23;100300.38;5024130;28;20225;-75
2022/05/16 07:08:41;;;;;;;4.70;4.30;;;;;;;21.26;95.44;100296.66;5023515;28;20188;-76
2022/05/16 07:11:08;;;;;;;6.00;4.83;;;;;;;21.29;94.99;100304.38;5024002;28;20226;-75
2022/05/16 07:13:34;;;;;;;4.60;4.20;;;;;;;21.36;95.03;100297.84;5020539;28;20717;-76
2022/05/16 07:15:59;;;;;;;4.10;3.73;;;;;;;21.59;94.39;100301.03;5025848;28;20623;-76
2022/05/16 07:18:25;;;;;;;4.70;4.30;;;;;;;21.88;93.68;100304.69;5024293;28;20191;-76
2022/05/16 07:20:51;;;;;;;4.73;4.20;;;;;;;22.23;93.18;100301.84;5025583;28;20199;-76
2022/05/16 07:23:17;;;;;;;4.83;4.23;;;;;;;22.57;92.10;100303.47;5023166;28;20191;-76
2022/05/16 07:28:27;;;;;;;4.87;4.37;;;;;;;23.20;90.97;100315.53;5029866;28;20669;-75
2022/05/16 07:30:52;;;;;;;5.13;4.63;;;;;;;23.41;89.75;100323.91;5029946;28;20207;-76
2022/05/16 07:33:19;;;;;;;4.27;3.87;;;;;;;23.53;89.63;100319.66;5027059;28;20186;-75
2022/05/16 07:35:45;;;;;;;4.60;4.20;;;;;;;23.64;89.07;100324.28;5030498;28;20211;-76
2022/05/16 07:38:10;;;;;;;4.60;3.70;;;;;;;23.72;89.02;100332.53;5028075;28;20194;-75
2022/05/16 07:40:37;;;;;;;4.43;4.00;;;;;;;23.82;88.64;100324.06;5022437;28;20187;-75
2022/05/16 07:43:03;;;;;;;4.17;3.83;;;;;;;23.88;88.89;100327.16;5029078;28;20214;-76
2022/05/16 07:45:29;;;;;;;5.23;4.77;;;;;;;23.92;88.35;100329.56;5025685;28;20243;-75
2022/05/16 07:47:55;;;;;;;3.77;3.47;;;;;;;23.93;88.36;100331.25;5027121;28;21272;-76
2022/05/16 07:50:22;;;;;;;4.57;3.80;;;;;;;23.96;88.10;100329.31;5025860;28;20215;-75
2022/05/16 07:52:48;;;;;;;4.67;4.27;;;;;;;23.98;88.35;100329.22;5027517;28;20188;-75
2022/05/16 07:55:21;;;;;;;4.43;4.03;;;;;;;24.02;88.29;100338.66;5024910;28;20219;-76
2022/05/16 07:57:46;;;;;;;5.00;4.50;;;;;;;24.09;88.07;100328.53;5025861;28;20211;-77
2022/05/16 08:00:13;;;;;;;5.37;4.10;;;;;;;24.16;88.11;100338.59;5024223;28;20214;-76
2022/05/16 08:02:39;;;;;;;5.30;4.50;;;;;;;24.22;87.64;100340.00;5026609;28;20245;-76
2022/05/16 08:05:09;;;;;;;5.10;4.70;;;;;;;24.29;87.39;100337.78;5026301;28;20179;-77
2022/05/16 08:07:34;;;;;;;5.23;4.30;;;;;;;24.52;86.96;100330.97;5051809;28;20184;-77
2022/05/16 08:12:44;;;;;;;7.30;5.10;;;;;;;25.00;85.55;100348.94;5017649;28;20218;-76
2022/05/16 08:15:09;;;;;;;5.50;4.03;;;;;;;25.16;85.09;100340.78;5024087;28;20646;-76
2022/05/16 08:17:35;;;;;;;4.40;3.97;;;;;;;25.36;84.49;100339.38;5024400;28;20187;-76
2022/05/16 08:20:04;;;;;;;4.37;3.97;;;;;;;25.44;84.12;100345.97;5030066;28;20658;-76
2022/05/16 08:22:34;;;;;;;4.53;3.83;;;;;;;25.48;84.13;100342.16;5056195;28;20305;-77
2022/05/16 08:24:59;;;;;;;5.17;3.90;;;;;;;25.67;83.27;100345.19;5025520;28;20853;-76
2022/05/16 08:27:26;;;;;;;6.83;4.30;;;;;;;25.91;82.53;100347.00;5031723;28;20191;-77
2022/05/16 08:29:51;;;;;;;4.57;4.17;;;;;;;26.07;80.96;100341.44;5026730;28;20520;-77
2022/05/16 08:32:20;;;;;;;4.10;3.80;;;;;;;26.23;80.05;100354.44;5031714;28;20666;-77
2022/05/16 08:34:46;;;;;;;4.70;4.23;;;;;;;26.32;78.64;100361.69;5025281;28;20218;-77
2022/05/16 08:40:01;;;;;;;5.23;3.97;;;;;;;26.37;78.02;100363.16;5030000;28;20269;-77
2022/05/16 08:42:50;;;;;;;4.77;3.97;;;;;;;26.36;77.07;100369.44;5027108;28;20247;-76
2022/05/16 08:45:38;;;;;;;7.67;4.10;;;;;;;26.39;76.58;100367.41;5026191;28;20202;-77
2022/05/16 08:48:28;;;;;;;6.07;4.27;;;;;;;26.36;75.92;100372.94;5024155;28;20198;-76
2022/05/16 08:51:04;;;;;;;9.80;4.30;;;;;;;26.46;76.10;100373.13;5028236;28;20230;-77
2022/05/16 08:53:50;;;;;;;7.07;4.30;;;;;;;26.53;75.60;100369.03;5030669;28;20190;-78
2022/05/16 08:56:22;;;;;;;4.23;3.83;;;;;;;26.60;75.51;100378.22;5026261;28;20199;-77
2022/05/16 08:58:57;;;;;;;6.00;4.53;;;;;;;26.73;75.43;100380.78;5023590;28;20271;-76
2022/05/16 09:01:35;;;;;;;5.17;4.00;;;;;;;26.86;76.21;100382.53;5032080;28;20198;-76
2022/05/16 09:04:04;;;;;;;7.77;3.80;;;;;;;27.02;75.56;100376.91;5021829;28;20270;-76
2022/05/16 09:06:49;;;;;;;4.60;3.93;;;;;;;27.32;75.13;100384.28;5029351;28;20215;-76
2022/05/16 09:09:16;;;;;;;5.10;4.17;;;;;;;27.69;73.96;100388.53;5028082;28;20188;-76
2022/05/16 09:12:15;;;;;;;6.03;4.53;;;;;;;28.06;71.70;100393.56;5028908;28;20211;-76
2022/05/16 09:14:53;;;;;;;6.50;3.93;;;;;;;28.19;71.92;100393.44;5026851;28;20187;-76
2022/05/16 09:17:40;;;;;;;5.33;3.37;;;;;;;28.31;71.10;100393.41;5028608;28;20550;-76
2022/05/16 09:20:53;;;;;;;4.70;3.30;;;;;;;28.43;70.90;100400.34;5027991;28;20658;-76
2022/05/16 09:23:35;;;;;;;4.63;3.63;;;;;;;28.66;70.66;100398.44;4973310;28;20193;-77
2022/05/16 09:26:30;;;;;;;6.00;3.70;;;;;;;28.79;70.24;100400.94;5013930;28;20223;-77
2022/05/16 09:29:07;;;;;;;5.80;3.00;;;;;;;28.71;68.68;100409.56;5025549;28;20963;-76
2022/05/16 09:31:42;;;;;;;5.33;3.00;;;;;;;28.72;68.92;100413.91;5017983;28;20218;-75
2022/05/16 09:34:10;;;;;;;3.77;2.80;;;;;;;28.75;68.92;100421.66;5026470;28;20208;-77
2022/05/16 09:36:38;;;;;;;3.90;3.10;;;;;;;28.80;68.43;100420.44;5015095;28;20545;-76
2022/05/16 09:39:06;;;;;;;3.70;2.90;;;;;;;28.67;68.04;100436.53;5016200;28;20304;-77
2022/05/16 09:42:20;;;;;;;3.17;2.30;;;;;;;28.39;67.53;100438.84;5017043;28;20664;-76
2022/05/16 09:45:13;;;;;;;5.17;2.10;;;;;;;28.05;67.77;100434.41;4991507;28;20223;-76
2022/05/16 09:47:42;;;;;;;4.07;2.00;;;;;;;27.84;67.53;100461.75;5017386;28;20200;-75
2022/05/16 09:50:24;;;;;;;3.70;2.13;;;;;;;27.53;67.75;100455.38;5017622;28;20195;-77
2022/05/16 09:53:02;;;;;;;3.73;1.83;;;;;;;27.29;68.30;100469.56;5018129;28;20193;-76
2022/05/16 09:55:33;;;;;;;4.60;2.13;;;;;;;27.12;68.57;100467.34;5017983;28;20211;-77
2022/05/16 09:58:00;;;;;;;2.33;1.70;;;;;;;26.96;68.96;100481.78;5019122;28;20196;-76
2022/05/16 10:00:36;;;;;;;3.33;1.97;;;;;;;26.85;69.10;100485.25;5017674;28;20194;-76
2022/05/16 10:03:40;;;;;;;4.27;1.90;;;;;;;26.52;69.89;100494.72;5017492;28;20194;-78
2022/05/16 10:06:11;;;;;;;4.07;2.10;;;;;;;26.19;70.61;100501.50;5018632;28;20215;-78
2022/05/16 10:08:39;;;;;;;3.77;2.40;;;;;;;25.84;70.63;100510.13;5019264;28;20195;-75
2022/05/16 10:11:12;;;;;;;5.67;2.33;;;;;;;25.51;71.77;100524.75;5015694;28;20246;-75
2022/05/16 10:13:38;;;;;;;6.57;2.43;;;;;;;25.25;72.35;100519.41;5019110;28;20694;-75
2022/05/16 10:16:07;;;;;;;6.03;2.63;;;;;;;25.02;73.10;100536.81;5018076;28;20231;-77
2022/05/16 10:18:41;;;;;;;4.83;2.60;;;;;;;24.81;73.81;100543.38;5019122;28;20192;-76
2022/05/16 10:21:13;;;;;;;4.53;2.33;;;;;;;24.70;74.43;100555.63;5017529;28;20192;-76
2022/05/16 10:23:42;;;;;;;4.27;2.53;;;;;;;24.56;74.94;100552.06;5012539;28;20253;-76
2022/05/16 10:26:33;;;;;;;4.70;2.30;;;;;;;24.48;75.34;100564.91;5015946;28;20222;-76
2022/05/16 10:29:02;;;;;;;5.17;2.20;;;;;;;24.36;74.72;100569.16;5015891;28;20207;-76
2022/05/16 10:34:28;;;;;;;2.83;1.97;;;;;;;23.97;75.96;100583.91;5018062;28;20203;-76
2022/05/16 10:36:56;;;;;;;3.93;1.70;;;;;;;23.80;76.91;100591.03;5014734;28;20215;-77
2022/05/16 10:39:29;;;;;;;2.33;1.50;;;;;;;23.65;77.28;100597.22;5014845;28;20191;-76
2022/05/16 10:42:07;;;;;;;7.20;3.33;;;;;;;23.53;78.32;100604.94;5014230;28;20199;-76
2022/05/16 10:44:52;;;;;;;10.00;3.80;;;;;;;23.35;79.95;100613.91;5017303;28;20191;-75
2022/05/16 10:47:25;;;;;;;3.83;2.40;;;;;;;23.16;81.99;100608.81;5017159;28;20223;-76
2022/05/16 10:49:54;;;;;;;4.57;2.00;;;;;;;22.97;84.21;100605.44;5016739;28;20183;-76
2022/05/16 10:52:34;;;;;;;5.20;1.97;;;;;;;22.88;87.97;100613.00;5025468;28;20301;-75
2022/05/16 10:55:00;;;;;;;5.57;2.47;;;;;;;22.74;91.09;100614.63;5019004;28;20188;-77
2022/05/16 10:57:39;;;;;;;2.97;2.40;;;;;;;22.63;92.29;100616.97;5021848;28;20688;-76
2022/05/16 11:00:08;;;;;;;4.00;2.20;;;;;;;22.56;93.69;100615.63;5022672;28;20841;-76
2022/05/16 11:02:52;;;;;;;3.40;2.10;;;;;;;22.48;94.76;100608.97;5025053;28;20657;-76
2022/05/16 11:05:45;;;;;;;5.63;2.60;;;;;;;22.40;96.42;100616.41;5017406;28;20729;-76
2022/05/16 11:08:32;;;;;;;4.37;2.33;;;;;;;22.33;97.40;100609.75;5023337;28;20674;-77
2022/05/16 11:11:32;;;;;;;2.43;2.10;;;;;;;22.32;98.06;100602.78;5030986;28;20246;-76
2022/05/16 11:14:12;;;;;;;2.53;2.30;;;;;;;22.37;98.32;100601.63;5024597;28;20187;-76
2022/05/16 11:16:39;;;;;;;5.03;2.67;;;;;;;22.45;98.97;100597.72;5029946;28;20679;-76
2022/05/16 11:19:15;;;;;;;4.13;2.07;;;;;;;22.58;99.26;100597.94;5032629;28;20195;-78
2022/05/16 11:22:04;;;;;;;5.60;3.27;;;;;;;22.72;99.22;100586.59;5030728;28;20563;-76
2022/05/16 11:24:44;;;;;;;3.67;2.30;;;;;;;22.87;98.46;100579.63;5027810;28;20195;-76
2022/05/16 11:27:15;;;;;;;3.67;2.13;;;;;;;23.05;97.53;100583.88;5032907;28;20686;-76
2022/05/16 11:30:07;;;;;;;3.00;2.40;;;;;;;23.28;96.76;100577.31;5031146;28;20191;-76
2022/05/16 11:32:40;;;;;;;3.23;2.53;;;;;;;23.44;96.60;100571.16;5029257;28;20294;-76
2022/05/16 11:35:48;;;;;;;2.60;2.30;;;;;;;23.55;96.30;100573.13;5032691;28;20341;-77
2022/05/16 11:38:19;;;;;;;3.03;2.60;;;;;;;23.48;96.27;100571.81;5013306;28;20269;-77
2022/05/16 11:41:03;;;;;;;4.60;2.50;;;;;;;23.38;96.28;100569.69;5034373;28;20191;-77
2022/05/16 11:43:32;;;;;;;3.73;2.37;;;;;;;23.24;96.55;100569.63;5017926;28;20192;-77
2022/05/16 11:45:57;;;;;;;2.93;2.63;;;;;;;23.09;97.62;100572.19;5017582;28;20270;-76
2022/05/16 11:48:49;;;;;;;5.43;2.80;;;;;;;23.01;97.47;100574.44;5017249;28;20204;-76
2022/05/16 11:51:26;;;;;;;5.97;3.10;;;;;;;22.95;97.59;100557.16;5011754;28;20223;-78
2022/05/16 11:53:58;;;;;;;3.47;2.73;;;;;;;22.95;97.95;100557.16;5018444;28;20214;-77
2022/05/16 12:02:27;;;;;;;3.63;2.60;;;;;;;23.63;96.80;100541.84;5016637;28;20213;-76
2022/05/16 12:05:29;;;;;;;4.83;3.10;;;;;;;23.95;95.56;100544.34;5034334;28;20270;-78
2022/05/16 12:08:27;;;;;;;4.37;2.67;;;;;;;24.38;93.99;100534.69;5014542;28;20203;-77
2022/05/16 12:11:04;;;;;;;3.33;2.60;;;;;;;24.94;92.58;100532.84;5042263;28;20346;-77